首页
METAR-TAF:

METAR-TAF

机场 :

喀土穆国际机场

喀土穆, 苏丹共和国

纬度: 15-36N, 经度: 032-33E, 海拔: 382米

当前天气观测

该预报发布于35分钟前的12:00 UTC
风速9节,风向西转西南
温度 34°C
湿度 41%
气压 1008 hPa
能见度10公里或以上
散云层高于5000英尺

METAR: HSSS 181200Z 25009KT 9999 SCT050 34/19 Q1008 NOSIG

时间: 15:35 (12:35 UTC)

预报

该预报发布于1小时和35分钟前的11:00 UTC
预报有效从18日的 12点(UTC)到 19日的 18点(UTC)
风速10节,风向南转西南,有时为20节阵风
能见度10公里或以上
少量云层高于4000英尺
散云层高于14000英尺
短暂存在
从 18日的 13点(UTC)到 18日的 16点(UTC)
能見度: 6000
少量云层高于4500英尺, 积雨云.
雷暴, 雨
几率 30% :
短暂存在
从 18日的 02点(UTC)到 19日的 06点(UTC)
能見度: 6000
少量云层高于4500英尺, 积雨云.
雷暴, 雨

TAF: HSSS 181100Z 1812/1918 21010G20KT 9999 FEW040 SCT140 TEMPO 1813/1816 6000 TSRA FEW045CB PROB30 TEMPO 1802/1906 6000 TSRA FEW045CB

超过4000个机场的气象观测和天气预报(METAR&TAF报告)。

可查询的气象台以黄色和红色小点在地图上表示。

将鼠标移到小点上方,可查看气象台名称。

然后点击查看天气观测和预报。

如需切换地图:点击带黑十字的绿色按钮放大地图;点击带横线的绿色按钮缩小地图;或者点击绿色箭头查看邻近地区的地图。


METAR-TAF: